createdAt,value
2017-02-15T00:01:05.992Z,1025.55
2017-02-15T00:06:03.241Z,1025.50
2017-02-15T00:10:59.182Z,1025.52
2017-02-15T00:15:55.801Z,1025.49
2017-02-15T00:20:51.859Z,1025.46
2017-02-15T00:25:48.339Z,1025.43
2017-02-15T00:30:44.883Z,1025.47
2017-02-15T00:35:41.079Z,1025.48
2017-02-15T00:40:37.247Z,1025.53
2017-02-15T00:45:33.346Z,1025.58
2017-02-15T00:50:29.679Z,1025.51
2017-02-15T00:55:25.964Z,1025.46
2017-02-15T01:00:22.363Z,1025.56
2017-02-15T01:05:18.189Z,1025.50
2017-02-15T01:10:14.768Z,1025.51
2017-02-15T01:15:11.019Z,1025.56
2017-02-15T01:20:07.313Z,1025.65
2017-02-15T01:25:03.567Z,1025.65
2017-02-15T01:30:00.315Z,1025.65
2017-02-15T01:34:56.531Z,1025.65
2017-02-15T01:39:52.691Z,1025.58
2017-02-15T01:44:49.765Z,1025.54
2017-02-15T01:49:46.249Z,1025.48
2017-02-15T01:54:43.210Z,1025.42
2017-02-15T01:59:39.588Z,1025.48
2017-02-15T02:04:35.728Z,1025.45
2017-02-15T02:09:32.028Z,1025.41
2017-02-15T02:14:27.967Z,1025.38
2017-02-15T02:19:24.624Z,1025.38
2017-02-15T02:24:21.000Z,1025.39
2017-02-15T02:29:17.491Z,1025.51
2017-02-15T02:34:14.742Z,1025.41
2017-02-15T02:39:10.764Z,1025.53
2017-02-15T02:44:07.775Z,1025.48
2017-02-15T02:49:04.222Z,1025.46
2017-02-15T02:54:00.572Z,1025.48
2017-02-15T02:58:56.882Z,1025.56
2017-02-15T03:03:52.940Z,1025.56
2017-02-15T03:08:49.500Z,1025.72
2017-02-15T03:13:45.919Z,1025.72
2017-02-15T03:18:43.120Z,1025.81
2017-02-15T03:23:39.797Z,1025.88
2017-02-15T03:28:35.898Z,1025.81
2017-02-15T03:33:32.159Z,1025.78
2017-02-15T03:38:28.596Z,1025.80
2017-02-15T03:43:25.107Z,1025.90
2017-02-15T03:48:21.616Z,1025.83
2017-02-15T03:53:19.252Z,1025.82
2017-02-15T03:58:15.361Z,1025.78
2017-02-15T04:03:11.914Z,1025.86
2017-02-15T04:08:08.115Z,1025.97
2017-02-15T04:13:04.494Z,1025.92
2017-02-15T04:18:00.993Z,1025.90
2017-02-15T04:22:57.376Z,1025.93
2017-02-15T04:27:53.514Z,1026.02
2017-02-15T04:32:49.732Z,1026.11
2017-02-15T04:37:46.042Z,1025.91
2017-02-15T04:42:42.292Z,1025.99
2017-02-15T04:47:38.670Z,1026.00
2017-02-15T04:52:35.016Z,1026.06
2017-02-15T04:57:31.162Z,1026.06
2017-02-15T05:02:28.431Z,1026.07
2017-02-15T05:07:24.949Z,1026.05
2017-02-15T05:12:21.111Z,1026.05
2017-02-15T05:17:17.512Z,1026.03
2017-02-15T05:22:13.873Z,1026.06
2017-02-15T05:27:10.913Z,1026.08
2017-02-15T05:32:07.076Z,1025.92
2017-02-15T05:37:04.878Z,1026.00
2017-02-15T05:42:00.864Z,1025.99
2017-02-15T05:46:58.115Z,1026.10
2017-02-15T05:51:54.911Z,1026.03
2017-02-15T05:56:50.935Z,1026.08
2017-02-15T06:01:47.988Z,1026.09
2017-02-15T06:06:44.343Z,1026.11
2017-02-15T06:11:40.763Z,1026.17
2017-02-15T06:16:37.039Z,1026.12
2017-02-15T06:21:33.793Z,1026.23
2017-02-15T06:26:30.204Z,1026.20
2017-02-15T06:31:26.501Z,1026.33
2017-02-15T06:36:23.144Z,1026.41
2017-02-15T06:41:19.909Z,1026.38
2017-02-15T06:46:17.046Z,1026.49
2017-02-15T06:51:13.524Z,1026.45
2017-02-15T06:56:10.043Z,1026.48
2017-02-15T07:01:06.507Z,1026.53
2017-02-15T07:06:03.678Z,1026.58
2017-02-15T07:11:00.055Z,1026.64
2017-02-15T07:15:57.361Z,1026.69
2017-02-15T07:20:53.441Z,1026.65
2017-02-15T07:25:50.665Z,1026.74
2017-02-15T07:30:47.021Z,1026.80
2017-02-15T07:35:43.607Z,1026.82
2017-02-15T07:40:40.688Z,1026.83
2017-02-15T07:45:37.197Z,1026.91
2017-02-15T07:50:34.275Z,1026.88
2017-02-15T07:55:30.847Z,1026.92
2017-02-15T08:00:27.399Z,1026.94
2017-02-15T08:05:23.844Z,1026.86
2017-02-15T08:10:20.686Z,1026.89
2017-02-15T08:15:17.263Z,1026.93
2017-02-15T08:20:13.760Z,1026.95
2017-02-15T08:25:10.245Z,1026.93
2017-02-15T08:30:06.885Z,1026.94
2017-02-15T08:35:03.331Z,1026.82
2017-02-15T08:40:00.291Z,1026.87
2017-02-15T08:44:56.558Z,1026.85
2017-02-15T08:49:53.567Z,1026.97
2017-02-15T08:54:52.727Z,1027.00
2017-02-15T08:59:48.636Z,1026.93
2017-02-15T09:04:45.181Z,1027.00
2017-02-15T09:09:41.897Z,1026.98
2017-02-15T09:14:38.480Z,1027.02
2017-02-15T09:19:35.197Z,1026.97
2017-02-15T09:24:32.354Z,1026.97
2017-02-15T09:29:28.996Z,1027.00
2017-02-15T09:34:25.621Z,1027.00
2017-02-15T09:39:22.671Z,1026.97
2017-02-15T09:44:19.352Z,1026.97
2017-02-15T09:49:17.294Z,1027.02
2017-02-15T09:54:13.868Z,1027.01
2017-02-15T09:59:10.855Z,1026.94
2017-02-15T10:04:07.608Z,1026.91
2017-02-15T10:09:04.223Z,1026.98
2017-02-15T10:14:01.108Z,1026.90
2017-02-15T10:18:59.638Z,1026.88
2017-02-15T10:23:55.677Z,1026.92
2017-02-15T10:28:53.326Z,1026.87
2017-02-15T10:33:49.785Z,1026.93
2017-02-15T10:38:46.609Z,1026.82
2017-02-15T10:43:43.240Z,1026.83
2017-02-15T10:48:39.871Z,1026.78
2017-02-15T10:53:36.693Z,1026.74
2017-02-15T10:58:33.510Z,1026.73
2017-02-15T11:03:30.234Z,1026.68
2017-02-15T11:08:27.350Z,1026.70
2017-02-15T11:13:24.760Z,1026.59
2017-02-15T11:18:22.591Z,1026.64
2017-02-15T11:23:19.500Z,1026.56
2017-02-15T11:28:16.817Z,1026.49
2017-02-15T11:33:13.562Z,1026.51
2017-02-15T11:38:10.371Z,1026.43
2017-02-15T11:43:08.310Z,1026.41
2017-02-15T11:48:04.881Z,1026.33
2017-02-15T11:53:02.025Z,1026.32
2017-02-15T11:57:58.356Z,1026.23
2017-02-15T12:02:55.010Z,1026.20
2017-02-15T12:07:52.595Z,1026.08
2017-02-15T12:12:50.153Z,1026.12
2017-02-15T12:17:46.801Z,1025.96
2017-02-15T12:22:43.577Z,1025.96
2017-02-15T12:27:39.882Z,1025.88
2017-02-15T12:32:36.360Z,1025.88
2017-02-15T12:37:32.614Z,1025.90
2017-02-15T12:42:29.326Z,1025.89
2017-02-15T12:47:26.182Z,1025.82
2017-02-15T12:52:22.470Z,1025.85
2017-02-15T12:57:19.963Z,1025.79
2017-02-15T13:02:16.216Z,1025.83
2017-02-15T13:07:13.198Z,1025.80
2017-02-15T13:12:09.738Z,1025.70
2017-02-15T13:17:06.882Z,1025.67
2017-02-15T13:22:03.244Z,1025.73
2017-02-15T13:27:02.449Z,1025.65
2017-02-15T13:31:58.297Z,1025.60
2017-02-15T13:36:55.018Z,1025.57
2017-02-15T13:41:51.735Z,1025.62
2017-02-15T13:46:48.262Z,1025.70
2017-02-15T13:51:45.901Z,1025.57
2017-02-15T13:56:42.061Z,1025.65
2017-02-15T14:01:38.938Z,1025.50
2017-02-15T14:06:35.583Z,1025.51
2017-02-15T14:11:32.558Z,1025.58
2017-02-15T14:16:29.623Z,1025.47
2017-02-15T14:21:26.101Z,1025.46
2017-02-15T14:26:22.605Z,1025.50
2017-02-15T14:31:19.028Z,1025.37
2017-02-15T14:36:15.342Z,1025.36
2017-02-15T14:41:11.844Z,1025.34
2017-02-15T14:46:09.431Z,1025.39
2017-02-15T14:51:06.009Z,1025.30
2017-02-15T14:56:02.665Z,1025.37
2017-02-15T15:00:59.291Z,1025.23
2017-02-15T15:05:55.698Z,1025.24
2017-02-15T15:10:52.484Z,1025.20
2017-02-15T15:15:48.860Z,1025.24
2017-02-15T15:20:45.365Z,1025.20
2017-02-15T15:25:42.399Z,1025.18
2017-02-15T15:30:38.427Z,1025.20
2017-02-15T15:35:35.124Z,1025.02
2017-02-15T15:40:31.573Z,1025.05
2017-02-15T15:45:27.579Z,1025.13
2017-02-15T15:50:24.183Z,1025.03
2017-02-15T15:55:20.486Z,1024.99
2017-02-15T16:00:16.685Z,1024.91
2017-02-15T16:05:13.466Z,1024.86
2017-02-15T16:10:09.702Z,1024.91
2017-02-15T16:15:06.191Z,1024.93
2017-02-15T16:20:02.606Z,1024.92
2017-02-15T16:24:59.441Z,1024.94
2017-02-15T16:29:55.944Z,1024.89
2017-02-15T16:34:53.065Z,1024.87
2017-02-15T16:39:49.387Z,1024.91
2017-02-15T16:44:46.706Z,1024.86
2017-02-15T16:49:42.500Z,1024.89
2017-02-15T16:54:39.341Z,1024.89
2017-02-15T16:59:35.563Z,1024.81
2017-02-15T17:04:31.681Z,1024.76
2017-02-15T17:09:28.347Z,1024.73
2017-02-15T17:14:25.563Z,1024.67
2017-02-15T17:19:23.230Z,1024.66
2017-02-15T17:24:19.583Z,1024.72
2017-02-15T17:29:15.965Z,1024.73
2017-02-15T17:34:12.420Z,1024.74
2017-02-15T17:39:08.720Z,1024.77
2017-02-15T17:44:06.623Z,1024.83
2017-02-15T17:49:03.143Z,1024.70
2017-02-15T17:53:59.544Z,1024.69
2017-02-15T17:58:56.653Z,1024.66
2017-02-15T18:03:52.547Z,1024.66
2017-02-15T18:08:48.928Z,1024.60
2017-02-15T18:13:45.139Z,1024.67
2017-02-15T18:18:42.387Z,1024.65
2017-02-15T18:23:39.233Z,1024.61
2017-02-15T18:28:36.048Z,1024.61
2017-02-15T18:33:32.812Z,1024.54
2017-02-15T18:38:29.367Z,1024.58
2017-02-15T18:43:25.718Z,1024.50
2017-02-15T18:48:21.827Z,1024.49
2017-02-15T18:53:17.986Z,1024.47
2017-02-15T18:58:14.869Z,1024.47
2017-02-15T19:03:10.807Z,1024.47
2017-02-15T19:08:07.457Z,1024.44
2017-02-15T19:13:04.087Z,1024.45
2017-02-15T19:18:00.549Z,1024.37
2017-02-15T19:22:57.806Z,1024.35
2017-02-15T19:27:54.479Z,1024.34
2017-02-15T19:32:51.115Z,1024.40
2017-02-15T19:37:47.132Z,1024.40
2017-02-15T19:42:43.810Z,1024.41
2017-02-15T19:47:40.216Z,1024.33
2017-02-15T19:52:37.366Z,1024.36
2017-02-15T19:57:33.173Z,1024.37
2017-02-15T20:02:29.570Z,1024.43
2017-02-15T20:07:26.005Z,1024.35
2017-02-15T20:12:22.373Z,1024.44
2017-02-15T20:17:19.200Z,1024.39
2017-02-15T20:22:15.675Z,1024.47
2017-02-15T20:27:12.472Z,1024.51
2017-02-15T20:32:09.092Z,1024.54
2017-02-15T20:37:05.533Z,1024.58
2017-02-15T20:42:01.993Z,1024.48
2017-02-15T20:46:58.585Z,1024.59
2017-02-15T20:51:55.071Z,1024.49
2017-02-15T20:56:51.580Z,1024.60
2017-02-15T21:01:48.614Z,1024.53
2017-02-15T21:06:45.517Z,1024.53
2017-02-15T21:11:41.894Z,1024.45
2017-02-15T21:16:39.161Z,1024.54
2017-02-15T21:21:35.898Z,1024.61
2017-02-15T21:26:32.294Z,1024.51
2017-02-15T21:31:28.701Z,1024.53
2017-02-15T21:36:25.233Z,1024.54
2017-02-15T21:41:21.751Z,1024.62
2017-02-15T21:46:18.266Z,1024.51
2017-02-15T21:51:14.893Z,1024.48
2017-02-15T21:56:11.496Z,1024.53
2017-02-15T22:01:07.675Z,1024.44
2017-02-15T22:06:04.378Z,1024.36
2017-02-15T22:11:00.978Z,1024.34
2017-02-15T22:15:57.159Z,1024.29
2017-02-15T22:20:53.914Z,1024.33
2017-02-15T22:25:50.657Z,1024.34
2017-02-15T22:30:46.911Z,1024.30
2017-02-15T22:35:43.618Z,1024.36
2017-02-15T22:40:40.688Z,1024.41
2017-02-15T22:45:37.676Z,1024.38
2017-02-15T22:50:34.176Z,1024.42
2017-02-15T22:55:31.938Z,1024.39
2017-02-15T23:00:28.419Z,1024.36
2017-02-15T23:05:25.077Z,1024.36
2017-02-15T23:10:21.747Z,1024.28
2017-02-15T23:15:17.997Z,1024.29
2017-02-15T23:20:14.678Z,1024.30
2017-02-15T23:25:11.178Z,1024.30
2017-02-15T23:30:07.460Z,1024.27
2017-02-15T23:35:03.886Z,1024.29
2017-02-15T23:40:00.102Z,1024.23
2017-02-15T23:44:57.018Z,1024.27
2017-02-15T23:49:53.327Z,1024.31
2017-02-15T23:54:49.738Z,1024.21
2017-02-15T23:59:46.176Z,1024.10
